Flight Track Log - Related Links

Times and Time Zones

All times are in EDT time to prevent confusion due to time zone crossing. See the DAL2030 flight status page for this flight to view local times or setup timezone preferences in your user account.

Time Position Orientation Groundspeed Altitude Reporting Facility
EDT Latitude Longitude Course Direction KTS MPH feet Rate Location/Type
Wed 03:58:43 PM 42.2292 -83.3342 194° South 160 184 1,400  Level Cleveland Center
Wed 03:59:32 PM 42.2575 -83.2878 50° Northeast 237 273 2,700 2,596 Climbing Cleveland Center
Wed 04:00:27 PM 42.2967 -83.2164 53° Northeast 258 297 5,900 2,902 Climbing Cleveland Center
Wed 04:01:00 PM 41.9783 -83.5986 197° South  Level Estimated
Wed 04:01:34 PM 42.3053 -83.1128 84° East 300 345 8,600  Level Cleveland Center
Wed 04:02:00 PM 41.9002 -83.6799 194° South  Level Estimated
Wed 04:02:35 PM 42.2486 -83.0319 133° Southeast 306 352 10,300  Level Cleveland Center
Wed 04:03:00 PM 41.8220 -83.7610 194° South  Level Estimated
Wed 04:03:38 PM 42.1694 -83.0344 181° South 313 360 12,800  Level Cleveland Center
Wed 04:04:00 PM 41.7438 -83.8419 194° South  Level Estimated
Wed 04:04:38 PM 42.1094 -83.0994 219° Southwest 291 335 13,200  Level Cleveland Center
Wed 04:06:00 PM 42.0051 -83.2150 219° Southwest  Level Estimated
Wed 04:06:38 PM 41.9833 -83.2397 219° Southwest 286 329 15,700  Level Cleveland Center
Wed 04:07:38 PM 41.9214 -83.3097 220° Southwest 286 329 18,200 2,250 Climbing Cleveland Center
Wed 04:08:38 PM 41.8550 -83.3794 218° Southwest 297 342 20,200 2,500 Climbing Cleveland Center
Wed 04:09:38 PM 41.7928 -83.4492 220° Southwest 297 342 23,200 2,450 Climbing Cleveland Center
Wed 04:10:38 PM 41.7306 -83.5186 220° Southwest 297 342 25,100 1,700 Climbing Cleveland Center
Wed 04:11:38 PM 41.6622 -83.5794 214° Southwest 297 342 26,600 1,050 Climbing Cleveland Center
Wed 04:12:38 PM 41.5742 -83.6031 191° South 300 345 27,200 700 Climbing Cleveland Center
Wed 04:13:38 PM 41.4794 -83.6319 193° South 330 380 28,000 1,000 Climbing Cleveland Center
Wed 04:14:38 PM 41.3883 -83.6831 203° Southwest 349 402 29,200 1,400 Climbing Cleveland Center
Wed 04:15:38 PM 41.3033 -83.7453 209° Southwest 349 402 30,800 1,065 Climbing Cleveland Center
Wed 04:17:44 PM 41.1394 -83.8625 208° Southwest 348 400 32,500 766 Climbing Indianapolis Center
Wed 04:18:46 PM 41.0444 -83.9300 208° Southwest 354 407 33,200 726 Climbing Indianapolis Center
Wed 04:19:48 PM 40.9572 -83.9922 208° Southwest 354 407 34,000 387 Climbing Indianapolis Center
Wed 04:20:50 PM 40.8706 -84.0544 209° Southwest 352 405 34,000  Level Indianapolis Center
Wed 04:21:52 PM 40.7700 -84.1258 208° Southwest 351 404 34,000  Level Indianapolis Center
Wed 04:22:54 PM 40.6842 -84.1881 209° Southwest 350 403 34,000  Level Indianapolis Center
Wed 04:23:56 PM 40.5972 -84.2475 207° Southwest 349 402 34,000  Level Indianapolis Center
Wed 04:24:58 PM 40.5106 -84.3106 209° Southwest 353 406 34,000  Level Indianapolis Center
Wed 04:26:00 PM 40.4247 -84.3711 208° Southwest 349 402 34,000  Level Indianapolis Center
Wed 04:27:02 PM 40.3389 -84.4319 208° Southwest 349 402 34,000  Level Indianapolis Center
Wed 04:28:04 PM 40.2394 -84.5019 208° Southwest 347 399 34,000  Level Indianapolis Center
Wed 04:29:06 PM 40.1525 -84.5631 208° Southwest 349 402 34,000  Level Indianapolis Center
Wed 04:30:08 PM 40.0661 -84.6228 208° Southwest 349 402 34,000  Level Indianapolis Center
Wed 04:31:10 PM 39.9789 -84.6833 208° Southwest 351 404 34,000  Level Indianapolis Center
Wed 04:32:12 PM 39.8922 -84.7431 208° Southwest 350 403 34,000  Level Indianapolis Center
Wed 04:33:15 PM 39.8058 -84.8028 208° Southwest 349 402 34,000  Level Indianapolis Center
Wed 04:34:17 PM 39.7247 -84.8683 212° Southwest 345 397 34,000  Level Indianapolis Center
Wed 04:35:19 PM 39.6464 -84.9608 222° Southwest 340 391 34,000  Level Indianapolis Center
Wed 04:36:21 PM 39.5747 -85.0425 221° Southwest 341 392 34,000  Level Indianapolis Center
Wed 04:37:23 PM 39.5011 -85.1239 220° Southwest 344 396 34,000  Level Indianapolis Center
Wed 04:38:25 PM 39.4264 -85.2064 220° Southwest 349 402 34,000  Level Indianapolis Center
Wed 04:39:27 PM 39.3408 -85.3017 221° Southwest 347 399 34,000  Level Indianapolis Center
Wed 04:40:29 PM 39.2672 -85.3850 221° Southwest 351 404 34,000  Level Indianapolis Center
Wed 04:41:31 PM 39.1939 -85.4661 221° Southwest 345 397 34,000  Level Indianapolis Center
Wed 04:42:33 PM 39.1214 -85.5461 221° Southwest 342 394 34,000  Level Indianapolis Center
Wed 04:43:35 PM 39.0500 -85.6261 221° Southwest 339 390 34,000  Level Indianapolis Center
Wed 04:44:37 PM 38.9789 -85.7042 220° Southwest 335 386 34,000  Level Indianapolis Center
Wed 04:45:39 PM 38.9075 -85.7825 221° Southwest 335 386 34,000  Level Indianapolis Center
Wed 04:46:41 PM 38.8244 -85.8731 220° Southwest 334 384 34,000  Level Indianapolis Center
Wed 04:47:43 PM 38.7533 -85.9519 221° Southwest 332 382 34,000  Level Indianapolis Center
Wed 04:48:45 PM 38.6825 -86.0294 221° Southwest 333 383 34,000  Level Indianapolis Center
Wed 04:49:47 PM 38.6122 -86.1050 220° Southwest 328 377 34,000  Level Indianapolis Center
Wed 04:50:49 PM 38.5422 -86.1811 220° Southwest 329 379 34,000  Level Indianapolis Center
Wed 04:51:51 PM 38.4703 -86.2586 220° Southwest 334 384 34,000  Level Indianapolis Center
Wed 04:52:53 PM 38.3975 -86.3369 220° Southwest 339 390 34,000  Level Indianapolis Center
Wed 04:53:55 PM 38.3250 -86.4147 220° Southwest 337 388 34,000  Level Indianapolis Center
Wed 04:54:57 PM 38.2531 -86.4925 220° Southwest 337 388 34,000  Level Indianapolis Center
Wed 04:55:58 PM 38.1800 -86.5717 220° Southwest 339 390 34,000  Level Indianapolis Center
Wed 04:57:00 PM 38.0919 -86.6653 220° Southwest 340 391 34,000  Level Indianapolis Center
Wed 04:58:02 PM 38.0181 -86.7453 220° Southwest 344 396 34,000  Level Indianapolis Center
Wed 04:59:04 PM 37.9419 -86.8242 219° Southwest 348 400 34,000  Level Indianapolis Center
Wed 05:00:06 PM 37.8667 -86.9044 220° Southwest 350 403 34,000  Level Indianapolis Center
Wed 05:01:07 PM 37.7906 -86.9844 220° Southwest 352 405 34,000  Level Indianapolis Center
Wed 05:02:09 PM 37.7144 -87.0642 220° Southwest 353 406 34,000  Level Indianapolis Center
Wed 05:03:11 PM 37.6375 -87.1453 220° Southwest 356 410 34,000  Level Indianapolis Center
Wed 05:03:33 PM 37.6097 -87.1764 222° Southwest 353 406 34,000  Level Memphis Center
Wed 05:04:33 PM 37.5347 -87.2581 221° Southwest 358 412 34,000  Level Memphis Center
Wed 05:05:33 PM 37.4575 -87.3367 219° Southwest 358 412 34,000  Level Memphis Center
Wed 05:06:33 PM 37.3783 -87.4156 218° Southwest 363 418 34,000  Level Memphis Center
Wed 05:07:33 PM 37.3008 -87.4967 220° Southwest 363 418 34,000  Level Memphis Center
Wed 05:08:33 PM 37.2236 -87.5750 219° Southwest 363 418 34,000  Level Memphis Center
Wed 05:09:33 PM 37.1464 -87.6583 221° Southwest 363 418 34,000  Level Memphis Center
Wed 05:10:33 PM 37.0667 -87.7389 219° Southwest 369 425 34,000  Level Memphis Center
Wed 05:11:33 PM 36.9811 -87.8250 219° Southwest 369 425 34,000  Level Memphis Center
Wed 05:12:33 PM 36.9014 -87.9053 219° Southwest 369 425 34,000  Level Memphis Center
Wed 05:13:33 PM 36.8236 -87.9853 219° Southwest 369 425 34,000  Level Memphis Center
Wed 05:14:33 PM 36.7439 -88.0681 220° Southwest 374 430 34,000 -600 Level Memphis Center
Wed 05:15:33 PM 36.6683 -88.1453 219° Southwest 369 425 32,800 -1,650 Descending Memphis Center
Wed 05:16:33 PM 36.5883 -88.2275 220° Southwest 369 425 30,700 -2,050 Descending Memphis Center
Wed 05:17:33 PM 36.5022 -88.3097 218° Southwest 380 437 28,700 -2,000 Descending Memphis Center
Wed 05:18:33 PM 36.4181 -88.3919 218° Southwest 387 445 26,700 -1,750 Descending Memphis Center
Wed 05:19:33 PM 36.3361 -88.4736 219° Southwest 387 445 25,200 -1,500 Descending Memphis Center
Wed 05:20:33 PM 36.2539 -88.5581 220° Southwest 387 445 23,700 -1,100 Descending Memphis Center
Wed 05:21:33 PM 36.1717 -88.6369 218° Southwest 387 445 23,000 -350 Descending Memphis Center
Wed 05:22:33 PM 36.0894 -88.7183 219° Southwest 387 445 23,000 -250 Level Memphis Center
Wed 05:23:33 PM 36.0092 -88.7969 218° Southwest 387 445 22,500 -1,200 Descending Memphis Center
Wed 05:24:33 PM 35.9350 -88.8700 219° Southwest 373 429 20,600 -1,750 Descending Memphis Center
Wed 05:25:33 PM 35.8669 -88.9353 218° Southwest 362 417 19,000 -1,350 Descending Memphis Center
Wed 05:26:33 PM 35.7925 -89.0083 219° Southwest 351 404 17,900 -850 Descending Memphis Center
Wed 05:27:33 PM 35.7203 -89.0811 219° Southwest 346 398 17,300 -800 Descending Memphis Center
Wed 05:28:33 PM 35.6606 -89.1611 227° Southwest 323 372 16,300 -950 Descending Memphis Center
Wed 05:29:33 PM 35.5989 -89.2439 228° Southwest 323 372 15,400 -800 Descending Memphis Center
Wed 05:30:33 PM 35.5369 -89.3211 225° Southwest 318 366 14,700 -650 Descending Memphis Center
Wed 05:31:33 PM 35.4731 -89.4036 226° Southwest 323 372 14,100 -700 Descending Memphis Center
Wed 05:32:33 PM 35.4089 -89.4883 227° Southwest 323 372 13,300 -950 Descending Memphis Center
Wed 05:33:33 PM 35.3531 -89.5578 225° Southwest 303 349 12,200 -1,500 Descending Memphis Center
Wed 05:34:33 PM 35.3056 -89.6217 228° Southwest 275 316 10,300 -1,600 Descending Memphis Center
Wed 05:35:33 PM 35.2536 -89.6858 225° Southwest 270 311 9,000 -650 Descending Memphis Center
Wed 05:36:33 PM 35.2081 -89.7419 225° Southwest 258 297 9,000  Level Memphis Center
Wed 05:37:33 PM 35.1647 -89.7983 227° Southwest 234 269 9,000 -350 Level Memphis Center
Wed 05:38:33 PM 35.1211 -89.8519 225° Southwest 228 262 8,300 -700 Descending Memphis Center
Wed 05:39:33 PM 35.0606 -89.8700 194° South 228 262 7,600 -1,350 Descending Memphis Center
Wed 05:40:33 PM 34.9917 -89.8678 178° South 234 269 5,600 -1,700 Descending Memphis Center
Wed 05:41:33 PM 34.9250 -89.8683 180° South 240 276 4,200 -1,550 Descending Memphis Center
Wed 05:42:33 PM 34.8625 -89.8839 192° South 235 270 2,500 -1,700 Descending Memphis Center

Login

Don't have an account? Register now (free) for customized features, flight alerts, and more!